createdAt,value
2018-05-19T00:00:38.323Z,0
2018-05-19T00:01:38.075Z,0
2018-05-19T00:02:38.096Z,0
2018-05-19T00:03:38.380Z,0
2018-05-19T00:04:38.123Z,0
2018-05-19T00:05:38.403Z,0
2018-05-19T00:06:38.424Z,0
2018-05-19T00:07:37.925Z,0
2018-05-19T00:08:37.918Z,0
2018-05-19T00:09:38.491Z,0
2018-05-19T00:10:38.251Z,0
2018-05-19T00:11:38.246Z,0
2018-05-19T00:12:38.540Z,0
2018-05-19T00:13:38.295Z,0
2018-05-19T00:14:38.048Z,0
2018-05-19T00:15:38.362Z,0
2018-05-19T00:16:38.591Z,0
2018-05-19T00:17:38.392Z,0
2018-05-19T00:18:38.707Z,0
2018-05-19T00:19:38.672Z,0
2018-05-19T00:20:38.429Z,0
2018-05-19T00:21:38.470Z,0
2018-05-19T00:22:38.757Z,0
2018-05-19T00:23:38.753Z,0
2018-05-19T00:24:38.770Z,0
2018-05-19T00:25:38.532Z,0
2018-05-19T00:26:38.529Z,0
2018-05-19T00:27:38.843Z,0
2018-05-19T00:28:38.869Z,0
2018-05-19T00:29:38.354Z,0
2018-05-19T00:30:38.879Z,0
2018-05-19T00:31:38.926Z,0
2018-05-19T00:32:38.920Z,0
2018-05-19T00:33:38.965Z,0
2018-05-19T00:34:38.704Z,0
2018-05-19T00:35:38.689Z,0
2018-05-19T00:36:39.005Z,0
2018-05-19T00:37:39.032Z,0
2018-05-19T00:38:38.775Z,0
2018-05-19T00:39:39.073Z,0
2018-05-19T00:40:38.818Z,0
2018-05-19T00:41:38.833Z,0
2018-05-19T00:42:39.157Z,0
2018-05-19T00:43:39.159Z,0
2018-05-19T00:44:38.894Z,0
2018-05-19T00:45:39.195Z,0
2018-05-19T00:46:39.197Z,0
2018-05-19T00:47:39.211Z,0
2018-05-19T00:48:39.230Z,0
2018-05-19T00:49:39.259Z,0
2018-05-19T00:50:39.280Z,0
2018-05-19T00:51:39.284Z,0
2018-05-19T00:52:38.753Z,0
2018-05-19T00:53:39.335Z,0
2018-05-19T00:54:39.106Z,0
2018-05-19T00:55:39.382Z,0
2018-05-19T00:56:39.367Z,0
2018-05-19T00:57:39.407Z,0
2018-05-19T00:58:39.444Z,0
2018-05-19T00:59:39.163Z,0
2018-05-19T01:00:39.480Z,0
2018-05-19T01:01:39.483Z,0
2018-05-19T01:02:39.233Z,0
2018-05-19T01:03:39.534Z,0
2018-05-19T01:04:39.547Z,0
2018-05-19T01:05:39.278Z,0
2018-05-19T01:06:39.298Z,0
2018-05-19T01:07:39.339Z,0
2018-05-19T01:08:39.351Z,0
2018-05-19T01:09:39.630Z,0
2018-05-19T01:10:39.377Z,0
2018-05-19T01:11:39.385Z,0
2018-05-19T01:12:39.708Z,0
2018-05-19T01:13:39.718Z,0
2018-05-19T01:14:39.779Z,0
2018-05-19T01:15:39.468Z,0
2018-05-19T01:16:39.636Z,0
2018-05-19T01:17:39.545Z,0
2018-05-19T01:18:39.537Z,0
2018-05-19T01:19:39.845Z,0
2018-05-19T01:20:39.866Z,0
2018-05-19T01:21:39.620Z,0
2018-05-19T01:22:39.913Z,0
2018-05-19T01:23:39.628Z,0
2018-05-19T01:24:39.939Z,0
2018-05-19T01:25:39.962Z,0
2018-05-19T01:26:39.700Z,0
2018-05-19T01:27:39.978Z,0
2018-05-19T01:28:40.018Z,0
2018-05-19T01:29:40.050Z,0
2018-05-19T01:30:40.059Z,0
2018-05-19T01:31:39.789Z,0
2018-05-19T01:32:40.060Z,0
2018-05-19T01:33:40.081Z,0
2018-05-19T01:34:39.595Z,0
2018-05-19T01:35:40.157Z,0
2018-05-19T01:36:39.871Z,0
2018-05-19T01:37:40.203Z,0
2018-05-19T01:38:40.181Z,0
2018-05-19T01:39:40.221Z,0
2018-05-19T01:40:40.245Z,0
2018-05-19T01:41:40.250Z,0
2018-05-19T01:42:40.005Z,0
2018-05-19T01:43:40.006Z,0
2018-05-19T01:44:40.321Z,0
2018-05-19T01:45:40.350Z,0
2018-05-19T01:46:40.353Z,0
2018-05-19T01:47:40.118Z,0
2018-05-19T01:48:40.397Z,0
2018-05-19T01:49:40.416Z,0
2018-05-19T01:50:40.152Z,0
2018-05-19T01:51:40.441Z,0
2018-05-19T01:52:39.644Z,0
2018-05-19T01:53:40.208Z,0
2018-05-19T01:54:40.469Z,0
2018-05-19T01:55:40.227Z,0
2018-05-19T01:56:40.583Z,0
2018-05-19T01:57:40.022Z,0
2018-05-19T01:58:40.583Z,0
2018-05-19T01:59:40.338Z,0
2018-05-19T02:00:40.079Z,0
2018-05-19T02:01:40.657Z,0
2018-05-19T02:02:40.754Z,0
2018-05-19T02:03:40.397Z,0
2018-05-19T02:04:40.417Z,0
2018-05-19T02:05:40.701Z,0
2018-05-19T02:06:40.447Z,0
2018-05-19T02:07:40.754Z,0
2018-05-19T02:08:40.502Z,0
2018-05-19T02:09:40.500Z,0
2018-05-19T02:10:40.530Z,0
2018-05-19T02:11:40.569Z,0
2018-05-19T02:12:40.846Z,0
2018-05-19T02:13:40.832Z,0
2018-05-19T02:14:40.357Z,0
2018-05-19T02:15:40.907Z,0
2018-05-19T02:16:40.879Z,0
2018-05-19T02:17:40.686Z,0
2018-05-19T02:18:40.972Z,0
2018-05-19T02:19:40.710Z,0
2018-05-19T02:20:40.979Z,0
2018-05-19T02:21:41.027Z,0
2018-05-19T02:22:40.741Z,0
2018-05-19T02:23:40.766Z,0
2018-05-19T02:24:41.055Z,0
2018-05-19T02:25:41.080Z,0
2018-05-19T02:26:40.833Z,0
2018-05-19T02:27:40.610Z,0
2018-05-19T02:28:41.146Z,0
2018-05-19T02:29:41.172Z,0
2018-05-19T02:30:41.199Z,0
2018-05-19T02:31:40.420Z,0
2018-05-19T02:32:41.201Z,0
2018-05-19T02:33:41.243Z,0
2018-05-19T02:34:41.364Z,0
2018-05-19T02:35:41.006Z,0
2018-05-19T02:36:41.286Z,0
2018-05-19T02:37:41.305Z,0
2018-05-19T02:38:41.344Z,0
2018-05-19T02:39:41.073Z,0
2018-05-19T02:40:40.839Z,0
2018-05-19T02:41:41.426Z,0
2018-05-19T02:42:40.877Z,0
2018-05-19T02:43:41.428Z,0
2018-05-19T02:44:41.457Z,0
2018-05-19T02:45:41.459Z,0
2018-05-19T02:46:41.187Z,0
2018-05-19T02:47:41.496Z,0
2018-05-19T02:48:41.668Z,0
2018-05-19T02:49:41.508Z,0
2018-05-19T02:50:41.541Z,0
2018-05-19T02:51:41.560Z,4
2018-05-19T02:52:41.578Z,4
2018-05-19T02:53:41.327Z,4
2018-05-19T02:54:41.617Z,4
2018-05-19T02:55:41.644Z,0
2018-05-19T02:56:41.663Z,4
2018-05-19T02:57:41.669Z,4
2018-05-19T02:58:41.699Z,4
2018-05-19T02:59:41.688Z,8
2018-05-19T03:00:41.177Z,4
2018-05-19T03:01:41.763Z,4
2018-05-19T03:02:41.800Z,8
2018-05-19T03:03:41.789Z,4
2018-05-19T03:04:41.800Z,8
2018-05-19T03:05:41.812Z,12
2018-05-19T03:06:41.830Z,8
2018-05-19T03:07:41.644Z,12
2018-05-19T03:08:41.889Z,12
2018-05-19T03:09:41.895Z,12
2018-05-19T03:10:41.949Z,12
2018-05-19T03:11:41.945Z,16
2018-05-19T03:12:41.953Z,16
2018-05-19T03:13:41.957Z,20
2018-05-19T03:14:42.008Z,20
2018-05-19T03:15:42.018Z,24
2018-05-19T03:16:42.019Z,20
2018-05-19T03:17:42.029Z,24
2018-05-19T03:18:42.038Z,24
2018-05-19T03:19:41.805Z,28
2018-05-19T03:20:41.825Z,28
2018-05-19T03:21:42.106Z,28
2018-05-19T03:22:42.150Z,32
2018-05-19T03:23:41.877Z,36
2018-05-19T03:24:41.905Z,36
2018-05-19T03:25:41.953Z,40
2018-05-19T03:26:42.192Z,40
2018-05-19T03:27:41.680Z,44
2018-05-19T03:28:41.973Z,44
2018-05-19T03:29:41.979Z,48
2018-05-19T03:30:42.276Z,52
2018-05-19T03:31:41.780Z,56
2018-05-19T03:32:42.311Z,56
2018-05-19T03:33:42.322Z,60
2018-05-19T03:34:42.072Z,64
2018-05-19T03:35:41.826Z,68
2018-05-19T03:36:42.133Z,72
2018-05-19T03:37:42.404Z,72
2018-05-19T03:38:42.130Z,76
2018-05-19T03:39:42.449Z,80
2018-05-19T03:40:42.460Z,80
2018-05-19T03:41:42.490Z,84
2018-05-19T03:42:42.239Z,92
2018-05-19T03:43:42.523Z,96
2018-05-19T03:44:42.501Z,96
2018-05-19T03:45:42.571Z,104
2018-05-19T03:46:41.753Z,104
2018-05-19T03:47:42.595Z,108
2018-05-19T03:48:42.633Z,112
2018-05-19T03:49:42.092Z,120
2018-05-19T03:50:42.642Z,124
2018-05-19T03:51:42.142Z,128
2018-05-19T03:52:42.701Z,136
2018-05-19T03:53:42.434Z,144
2018-05-19T03:54:42.728Z,148
2018-05-19T03:55:42.758Z,156
2018-05-19T03:56:42.495Z,168
2018-05-19T03:57:42.801Z,176
2018-05-19T03:58:42.783Z,184
2018-05-19T03:59:42.830Z,192
2018-05-19T04:00:42.838Z,200
2018-05-19T04:01:42.571Z,212
2018-05-19T04:02:42.603Z,224
2018-05-19T04:03:42.886Z,236
2018-05-19T04:04:42.901Z,244
2018-05-19T04:05:42.650Z,252
2018-05-19T04:06:42.982Z,264
2018-05-19T04:07:42.952Z,272
2018-05-19T04:08:42.719Z,284
2018-05-19T04:09:42.991Z,288
2018-05-19T04:10:42.725Z,292
2018-05-19T04:11:43.027Z,292
2018-05-19T04:12:43.034Z,296
2018-05-19T04:13:43.081Z,300
2018-05-19T04:14:43.100Z,304
2018-05-19T04:15:42.820Z,304
2018-05-19T04:16:43.196Z,308
2018-05-19T04:17:42.865Z,312
2018-05-19T04:18:42.880Z,320
2018-05-19T04:19:42.899Z,320
2018-05-19T04:20:42.668Z,328
2018-05-19T04:21:43.209Z,332
2018-05-19T04:22:43.279Z,336
2018-05-19T04:23:43.283Z,336
2018-05-19T04:24:43.256Z,340
2018-05-19T04:25:43.027Z,340
2018-05-19T04:26:43.279Z,344
2018-05-19T04:27:42.779Z,344
2018-05-19T04:28:43.046Z,344
2018-05-19T04:29:43.351Z,344
2018-05-19T04:30:43.102Z,348
2018-05-19T04:31:43.371Z,348
2018-05-19T04:32:43.141Z,348
2018-05-19T04:33:43.131Z,348
2018-05-19T04:34:43.446Z,352
2018-05-19T04:35:43.165Z,356
2018-05-19T04:36:43.255Z,356
2018-05-19T04:37:43.506Z,364
2018-05-19T04:38:43.262Z,372
2018-05-19T04:39:43.603Z,372
2018-05-19T04:40:43.347Z,380
2018-05-19T04:41:43.303Z,384
2018-05-19T04:42:43.554Z,388
2018-05-19T04:43:43.053Z,392
2018-05-19T04:44:43.612Z,396
2018-05-19T04:45:43.610Z,396
2018-05-19T04:46:43.382Z,400
2018-05-19T04:47:43.680Z,404
2018-05-19T04:48:43.677Z,404
2018-05-19T04:49:43.678Z,404
2018-05-19T04:50:43.486Z,404
2018-05-19T04:51:43.732Z,404
2018-05-19T04:52:43.753Z,408
2018-05-19T04:53:43.527Z,412
2018-05-19T04:54:43.543Z,412
2018-05-19T04:55:43.844Z,420
2018-05-19T04:56:43.571Z,424
2018-05-19T04:57:43.585Z,428
2018-05-19T04:58:43.857Z,432
2018-05-19T04:59:43.870Z,436
2018-05-19T05:00:43.879Z,440
2018-05-19T05:01:43.656Z,448
2018-05-19T05:02:43.920Z,452
2018-05-19T05:03:43.488Z,460
2018-05-19T05:04:43.992Z,468
2018-05-19T05:05:43.989Z,476
2018-05-19T05:06:44.008Z,484
2018-05-19T05:07:44.012Z,492
2018-05-19T05:08:43.792Z,500
2018-05-19T05:09:43.809Z,508
2018-05-19T05:10:43.835Z,520
2018-05-19T05:11:43.833Z,532
2018-05-19T05:12:43.600Z,540
2018-05-19T05:13:43.615Z,548
2018-05-19T05:14:43.866Z,556
2018-05-19T05:15:43.889Z,564
2018-05-19T05:16:43.660Z,568
2018-05-19T05:17:44.214Z,572
2018-05-19T05:18:43.689Z,572
2018-05-19T05:19:44.469Z,580
2018-05-19T05:20:44.265Z,584
2018-05-19T05:21:44.249Z,584
2018-05-19T05:22:43.744Z,584
2018-05-19T05:23:44.050Z,584
2018-05-19T05:24:44.323Z,584
2018-05-19T05:25:44.353Z,580
2018-05-19T05:26:44.341Z,580
2018-05-19T05:27:44.119Z,580
2018-05-19T05:28:44.141Z,580
2018-05-19T05:29:44.162Z,576
2018-05-19T05:30:44.465Z,576
2018-05-19T05:31:44.206Z,576
2018-05-19T05:32:44.208Z,576
2018-05-19T05:33:44.246Z,576
2018-05-19T05:34:44.243Z,576
2018-05-19T05:35:44.006Z,576
2018-05-19T05:36:44.008Z,572
2018-05-19T05:37:44.688Z,576
2018-05-19T05:38:44.587Z,580
2018-05-19T05:39:44.336Z,576
2018-05-19T05:40:44.620Z,576
2018-05-19T05:41:44.613Z,576
2018-05-19T05:42:44.742Z,576
2018-05-19T05:43:44.682Z,576
2018-05-19T05:44:44.710Z,580
2018-05-19T05:45:44.159Z,588
2018-05-19T05:46:44.714Z,588
2018-05-19T05:47:44.479Z,592
2018-05-19T05:48:44.803Z,600
2018-05-19T05:49:44.805Z,600
2018-05-19T05:50:44.611Z,600
2018-05-19T05:51:44.561Z,600
2018-05-19T05:52:44.601Z,608
2018-05-19T05:53:44.313Z,604
2018-05-19T05:54:44.900Z,612
2018-05-19T05:55:44.880Z,616
2018-05-19T05:56:44.668Z,616
2018-05-19T05:57:44.657Z,616
2018-05-19T05:58:44.686Z,616
2018-05-19T05:59:45.455Z,616
2018-05-19T06:00:44.997Z,620
2018-05-19T06:01:45.024Z,624
2018-05-19T06:02:45.035Z,624
2018-05-19T06:03:45.027Z,628
2018-05-19T06:04:44.800Z,628
2018-05-19T06:05:44.556Z,632
2018-05-19T06:06:44.634Z,636
2018-05-19T06:07:44.847Z,636
2018-05-19T06:08:45.117Z,648
2018-05-19T06:09:44.879Z,656
2018-05-19T06:10:45.143Z,648
2018-05-19T06:11:45.158Z,648
2018-05-19T06:12:45.215Z,660
2018-05-19T06:13:44.936Z,668
2018-05-19T06:14:45.268Z,672
2018-05-19T06:15:45.256Z,672
2018-05-19T06:16:45.275Z,668
2018-05-19T06:17:45.041Z,672
2018-05-19T06:18:45.422Z,672
2018-05-19T06:19:45.332Z,668
2018-05-19T06:20:45.100Z,672
2018-05-19T06:21:45.068Z,668
2018-05-19T06:22:44.829Z,660
2018-05-19T06:23:45.128Z,660
2018-05-19T06:24:45.439Z,724
2018-05-19T06:25:45.423Z,764
2018-05-19T06:26:45.456Z,828
2018-05-19T06:27:45.473Z,792
2018-05-19T06:28:45.511Z,772
2018-05-19T06:29:45.251Z,744
2018-05-19T06:30:44.993Z,712
2018-05-19T06:31:45.563Z,752
2018-05-19T06:32:45.284Z,812
2018-05-19T06:33:45.603Z,984
2018-05-19T06:34:45.921Z,1028
2018-05-19T06:35:45.632Z,948
2018-05-19T06:36:45.624Z,800
2018-05-19T06:37:45.651Z,748
2018-05-19T06:38:45.394Z,804
2018-05-19T06:39:45.453Z,848
2018-05-19T06:40:45.719Z,836
2018-05-19T06:41:45.760Z,800
2018-05-19T06:42:45.777Z,992
2018-05-19T06:43:45.494Z,1120
2018-05-19T06:44:45.782Z,1080
2018-05-19T06:45:45.539Z,1036
2018-05-19T06:46:45.585Z,1076
2018-05-19T06:47:45.880Z,1144
2018-05-19T06:48:45.619Z,1092
2018-05-19T06:49:45.895Z,940
2018-05-19T06:50:45.374Z,808
2018-05-19T06:51:45.385Z,756
2018-05-19T06:52:45.392Z,740
2018-05-19T06:53:45.991Z,740
2018-05-19T06:54:45.716Z,748
2018-05-19T06:55:45.975Z,776
2018-05-19T06:56:46.015Z,936
2018-05-19T06:57:46.061Z,1128
2018-05-19T06:58:46.039Z,1252
2018-05-19T06:59:46.060Z,1392
2018-05-19T07:00:46.101Z,1524
2018-05-19T07:01:46.116Z,1580
2018-05-19T07:02:46.424Z,1552
2018-05-19T07:03:45.599Z,1496
2018-05-19T07:04:46.175Z,1392
2018-05-19T07:05:45.371Z,1300
2018-05-19T07:06:45.914Z,1268
2018-05-19T07:07:46.208Z,1364
2018-05-19T07:08:46.236Z,1508
2018-05-19T07:09:45.992Z,1548
2018-05-19T07:10:46.300Z,1524
2018-05-19T07:11:46.063Z,1584
2018-05-19T07:12:46.116Z,1536
2018-05-19T07:13:46.312Z,1476
2018-05-19T07:14:46.149Z,1476
2018-05-19T07:15:46.141Z,1528
2018-05-19T07:16:46.121Z,1576
2018-05-19T07:17:46.163Z,1568
2018-05-19T07:18:46.162Z,1608
2018-05-19T07:19:46.176Z,1588
2018-05-19T07:20:46.494Z,1488
2018-05-19T07:21:46.495Z,1416
2018-05-19T07:22:46.227Z,1340
2018-05-19T07:23:46.298Z,1316
2018-05-19T07:24:46.561Z,1372
2018-05-19T07:25:46.279Z,1496
2018-05-19T07:26:46.571Z,1584
2018-05-19T07:27:46.321Z,1660
2018-05-19T07:28:46.376Z,1656
2018-05-19T07:29:46.102Z,1592
2018-05-19T07:30:46.643Z,1492
2018-05-19T07:31:46.662Z,1388
2018-05-19T07:32:46.692Z,1320
2018-05-19T07:33:46.695Z,1316
2018-05-19T07:34:46.499Z,1360
2018-05-19T07:35:46.422Z,1388
2018-05-19T07:36:46.542Z,1384
2018-05-19T07:37:46.791Z,1392
2018-05-19T07:38:46.806Z,1448
2018-05-19T07:39:46.581Z,1520
2018-05-19T07:40:46.596Z,1592
2018-05-19T07:41:46.613Z,1640
2018-05-19T07:42:46.607Z,1668
2018-05-19T07:43:46.938Z,1672
2018-05-19T07:44:46.660Z,1692
2018-05-19T07:45:46.724Z,1732
2018-05-19T07:46:46.433Z,1804
2018-05-19T07:47:46.702Z,1900
2018-05-19T07:48:46.765Z,2004
2018-05-19T07:49:47.042Z,2064
2018-05-19T07:50:46.630Z,2104
2018-05-19T07:51:46.814Z,2068
2018-05-19T07:52:46.912Z,1984
2018-05-19T07:53:46.864Z,1932
2018-05-19T07:54:46.585Z,2008
2018-05-19T07:55:47.146Z,2108
2018-05-19T07:56:46.875Z,2176
2018-05-19T07:57:46.897Z,2220
2018-05-19T07:58:47.234Z,2228
2018-05-19T07:59:46.669Z,2228
2018-05-19T08:00:46.968Z,2228
2018-05-19T08:01:47.301Z,2212
2018-05-19T08:02:46.748Z,2220
2018-05-19T08:03:47.031Z,2304
2018-05-19T08:04:47.336Z,2436
2018-05-19T08:05:47.061Z,2492
2018-05-19T08:06:47.118Z,2460
2018-05-19T08:07:47.395Z,2332
2018-05-19T08:08:47.128Z,2200
2018-05-19T08:09:47.440Z,2084
2018-05-19T08:10:47.479Z,2044
2018-05-19T08:11:47.468Z,2080
2018-05-19T08:12:46.950Z,2156
2018-05-19T08:13:46.687Z,2260
2018-05-19T08:14:47.536Z,2364
2018-05-19T08:15:47.550Z,2448
2018-05-19T08:16:47.550Z,2528
2018-05-19T08:17:47.603Z,2544
2018-05-19T08:18:47.618Z,2484
2018-05-19T08:19:47.625Z,2412
2018-05-19T08:20:47.670Z,2300
2018-05-19T08:21:47.404Z,2224
2018-05-19T08:22:47.713Z,2188
2018-05-19T08:23:47.703Z,2120
2018-05-19T08:24:47.463Z,2040
2018-05-19T08:25:47.757Z,1976
2018-05-19T08:26:47.778Z,1908
2018-05-19T08:27:47.245Z,1868
2018-05-19T08:28:47.823Z,1876
2018-05-19T08:29:47.562Z,1944
2018-05-19T08:30:47.333Z,2036
2018-05-19T08:31:47.856Z,2128
2018-05-19T08:32:47.618Z,2228
2018-05-19T08:33:47.647Z,2308
2018-05-19T08:34:47.656Z,2404
2018-05-19T08:35:47.960Z,2460
2018-05-19T08:36:47.988Z,2476
2018-05-19T08:37:47.733Z,2460
2018-05-19T08:38:47.745Z,2380
2018-05-19T08:39:47.778Z,2344
2018-05-19T08:40:48.048Z,2392
2018-05-19T08:41:47.806Z,2412
2018-05-19T08:42:47.831Z,2452
2018-05-19T08:43:47.873Z,2500
2018-05-19T08:44:47.883Z,2584
2018-05-19T08:45:48.193Z,2700
2018-05-19T08:46:47.947Z,2740
2018-05-19T08:47:47.931Z,2724
2018-05-19T08:48:48.239Z,2744
2018-05-19T08:49:48.246Z,2736
2018-05-19T08:50:48.017Z,2656
2018-05-19T08:51:48.302Z,2560
2018-05-19T08:52:48.035Z,2492
2018-05-19T08:53:48.074Z,2524
2018-05-19T08:54:48.102Z,2596
2018-05-19T08:55:48.118Z,2628
2018-05-19T08:56:48.119Z,2604
2018-05-19T08:57:48.159Z,2616
2018-05-19T08:58:48.174Z,2724
2018-05-19T08:59:48.191Z,2872
2018-05-19T09:00:48.205Z,2976
2018-05-19T09:01:47.956Z,3028
2018-05-19T09:02:48.532Z,3056
2018-05-19T09:03:48.567Z,3048
2018-05-19T09:04:48.560Z,3028
2018-05-19T09:05:48.578Z,3044
2018-05-19T09:06:48.922Z,3048
2018-05-19T09:07:48.085Z,2996
2018-05-19T09:08:48.673Z,2892
2018-05-19T09:09:48.693Z,2776
2018-05-19T09:10:48.147Z,2708
2018-05-19T09:11:48.450Z,2708
2018-05-19T09:12:48.966Z,2724
2018-05-19T09:13:48.730Z,2748
2018-05-19T09:14:48.243Z,2808
2018-05-19T09:15:48.620Z,2888
2018-05-19T09:16:48.826Z,2920
2018-05-19T09:17:48.570Z,2932
2018-05-19T09:18:48.318Z,3008
2018-05-19T09:19:48.616Z,3112
2018-05-19T09:20:48.901Z,3116
2018-05-19T09:21:48.926Z,3028
2018-05-19T09:22:48.976Z,3004
2018-05-19T09:23:48.953Z,3052
2018-05-19T09:24:49.030Z,3056
2018-05-19T09:25:49.036Z,2996
2018-05-19T09:26:49.123Z,2928
2018-05-19T09:27:49.077Z,2904
2018-05-19T09:28:49.100Z,2932
2018-05-19T09:29:49.049Z,2964
2018-05-19T09:30:48.578Z,2952
2018-05-19T09:31:48.595Z,2892
2018-05-19T09:32:48.903Z,2860
2018-05-19T09:33:49.182Z,2888
2018-05-19T09:34:48.947Z,2908
2018-05-19T09:35:49.587Z,2916
2018-05-19T09:36:48.972Z,2968
2018-05-19T09:37:49.278Z,3044
2018-05-19T09:38:49.013Z,3096
2018-05-19T09:39:49.308Z,3104
2018-05-19T09:40:49.075Z,3064
2018-05-19T09:41:48.558Z,3024
2018-05-19T09:42:49.392Z,3024
2018-05-19T09:43:49.129Z,3104
2018-05-19T09:44:49.415Z,3212
2018-05-19T09:45:49.174Z,3236
2018-05-19T09:46:49.470Z,3120
2018-05-19T09:47:49.851Z,3024
2018-05-19T09:48:49.481Z,3032
2018-05-19T09:49:49.564Z,3084
2018-05-19T09:50:49.286Z,3160
2018-05-19T09:51:49.038Z,3268
2018-05-19T09:52:49.643Z,3368
2018-05-19T09:53:49.343Z,3388
2018-05-19T09:54:49.366Z,3296
2018-05-19T09:55:49.666Z,3208
2018-05-19T09:56:49.455Z,3216
2018-05-19T09:57:49.429Z,3248
2018-05-19T09:58:49.464Z,3244
2018-05-19T09:59:49.219Z,3224
2018-05-19T10:00:49.504Z,3204
2018-05-19T10:01:50.058Z,3196
2018-05-19T10:02:49.894Z,3184
2018-05-19T10:03:49.627Z,3204
2018-05-19T10:04:49.668Z,3220
2018-05-19T10:05:49.604Z,3232
2018-05-19T10:06:49.906Z,3316
2018-05-19T10:07:49.655Z,3412
2018-05-19T10:08:49.720Z,3552
2018-05-19T10:09:49.697Z,3636
2018-05-19T10:10:49.995Z,3628
2018-05-19T10:11:49.759Z,3584
2018-05-19T10:12:50.062Z,3536
2018-05-19T10:13:49.809Z,3544
2018-05-19T10:14:50.102Z,3640
2018-05-19T10:15:50.111Z,3728
2018-05-19T10:16:49.896Z,3720
2018-05-19T10:17:49.897Z,3660
2018-05-19T10:18:50.188Z,3636
2018-05-19T10:19:49.942Z,3700
2018-05-19T10:20:50.205Z,3852
2018-05-19T10:21:49.712Z,3960
2018-05-19T10:22:50.189Z,3972
2018-05-19T10:23:50.318Z,3976
2018-05-19T10:24:50.294Z,4012
2018-05-19T10:25:50.316Z,4140
2018-05-19T10:26:50.098Z,4204
2018-05-19T10:27:50.399Z,4136
2018-05-19T10:28:50.158Z,4008
2018-05-19T10:29:50.439Z,3928
2018-05-19T10:30:49.914Z,3896
2018-05-19T10:31:50.198Z,3832
2018-05-19T10:32:50.512Z,3824
2018-05-19T10:33:50.498Z,3936
2018-05-19T10:34:50.570Z,4080
2018-05-19T10:35:50.307Z,4160
2018-05-19T10:36:50.047Z,4220
2018-05-19T10:37:50.341Z,4320
2018-05-19T10:38:50.355Z,4348
2018-05-19T10:39:50.655Z,4192
2018-05-19T10:40:50.145Z,4052
2018-05-19T10:41:50.827Z,3984
2018-05-19T10:42:50.751Z,3932
2018-05-19T10:43:50.750Z,4012
2018-05-19T10:44:50.492Z,4028
2018-05-19T10:45:50.807Z,4096
2018-05-19T10:46:50.560Z,4264
2018-05-19T10:47:50.573Z,4292
2018-05-19T10:48:50.330Z,4228
2018-05-19T10:49:50.601Z,4196
2018-05-19T10:50:50.935Z,4120
2018-05-19T10:51:50.949Z,4028
2018-05-19T10:52:50.966Z,3980
2018-05-19T10:53:50.700Z,3968
2018-05-19T10:54:51.008Z,3888
2018-05-19T10:55:50.770Z,3764
2018-05-19T10:56:51.061Z,3708
2018-05-19T10:57:51.073Z,3736
2018-05-19T10:58:50.839Z,3772
2018-05-19T10:59:51.148Z,3620
2018-05-19T11:00:51.154Z,3336
2018-05-19T11:01:51.171Z,3136
2018-05-19T11:02:51.192Z,2940
2018-05-19T11:03:50.974Z,2784
2018-05-19T11:04:50.965Z,2684
2018-05-19T11:05:50.989Z,2656
2018-05-19T11:06:51.030Z,2684
2018-05-19T11:07:51.307Z,2744
2018-05-19T11:08:50.813Z,2772
2018-05-19T11:09:50.944Z,2768
2018-05-19T11:10:51.393Z,2744
2018-05-19T11:11:50.885Z,2688
2018-05-19T11:12:50.899Z,2664
2018-05-19T11:13:51.163Z,2684
2018-05-19T11:14:51.212Z,2664
2018-05-19T11:15:50.982Z,2676
2018-05-19T11:16:50.993Z,2676
2018-05-19T11:17:51.367Z,2656
2018-05-19T11:18:52.273Z,2772
2018-05-19T11:19:50.785Z,3044
2018-05-19T11:20:51.646Z,3428
2018-05-19T11:21:51.641Z,3756
2018-05-19T11:22:51.694Z,3900
2018-05-19T11:23:51.435Z,3896
2018-05-19T11:24:51.449Z,3708
2018-05-19T11:25:51.874Z,3644
2018-05-19T11:26:51.780Z,3632
2018-05-19T11:27:51.516Z,3536
2018-05-19T11:28:51.564Z,3324
2018-05-19T11:29:51.333Z,3156
2018-05-19T11:30:51.878Z,3052
2018-05-19T11:31:51.631Z,2960
2018-05-19T11:32:51.917Z,2848
2018-05-19T11:33:51.407Z,2816
2018-05-19T11:34:51.663Z,2916
2018-05-19T11:35:51.527Z,3028
2018-05-19T11:36:52.001Z,3060
2018-05-19T11:37:51.776Z,3092
2018-05-19T11:38:51.792Z,3200
2018-05-19T11:39:51.798Z,3244
2018-05-19T11:41:52.150Z,3144
2018-05-19T11:42:52.157Z,3112
2018-05-19T11:43:52.165Z,3108
2018-05-19T11:44:52.215Z,3108
2018-05-19T11:45:52.229Z,3132
2018-05-19T11:46:52.348Z,3296
2018-05-19T11:47:51.766Z,3452
2018-05-19T11:48:52.288Z,3496
2018-05-19T11:49:52.036Z,3468
2018-05-19T11:50:52.625Z,3404
2018-05-19T11:51:52.105Z,3476
2018-05-19T11:52:51.864Z,3476
2018-05-19T11:53:52.425Z,3444
2018-05-19T11:54:52.186Z,3380
2018-05-19T11:55:52.185Z,3296
2018-05-19T11:56:52.574Z,3204
2018-05-19T11:57:52.271Z,3152
2018-05-19T11:58:52.550Z,3152
2018-05-19T11:59:52.307Z,3152
2018-05-19T12:00:52.579Z,3084
2018-05-19T12:01:52.337Z,3084
2018-05-19T12:02:53.006Z,3080
2018-05-19T12:03:52.398Z,3020
2018-05-19T12:04:52.427Z,2976
2018-05-19T12:05:53.061Z,3036
2018-05-19T12:06:52.732Z,3108
2018-05-19T12:07:52.476Z,3184
2018-05-19T12:08:52.517Z,3292
2018-05-19T12:09:52.835Z,3468
2018-05-19T12:10:52.645Z,3624
2018-05-19T12:11:53.206Z,3540
2018-05-19T12:12:52.621Z,3392
2018-05-19T12:13:52.993Z,3256
2018-05-19T12:14:52.664Z,3192
2018-05-19T12:15:52.984Z,3260
2018-05-19T12:16:53.004Z,3356
2018-05-19T12:17:52.476Z,3408
2018-05-19T12:18:53.025Z,3500
2018-05-19T12:19:53.082Z,3736
2018-05-19T12:20:53.106Z,3848
2018-05-19T12:21:53.082Z,3792
2018-05-19T12:22:53.364Z,3800
2018-05-19T12:23:52.974Z,3776
2018-05-19T12:24:52.947Z,3712
2018-05-19T12:25:52.937Z,3672
2018-05-19T12:26:52.956Z,3696
2018-05-19T12:27:53.259Z,3968
2018-05-19T12:28:53.362Z,4252
2018-05-19T12:29:53.039Z,4264
2018-05-19T12:30:53.070Z,4348
2018-05-19T12:31:53.354Z,4560
2018-05-19T12:32:53.252Z,4536
2018-05-19T12:33:53.418Z,4500
2018-05-19T12:34:53.230Z,4588
2018-05-19T12:35:53.463Z,4572
2018-05-19T12:36:52.942Z,4404
2018-05-19T12:37:53.525Z,4316
2018-05-19T12:38:53.524Z,4332
2018-05-19T12:39:53.538Z,4616
2018-05-19T12:40:53.282Z,4492
2018-05-19T12:41:53.625Z,4468
2018-05-19T12:42:53.364Z,4444
2018-05-19T12:43:53.664Z,4444
2018-05-19T12:44:53.393Z,4508
2018-05-19T12:45:53.439Z,4676
2018-05-19T12:46:53.722Z,4892
2018-05-19T12:47:53.758Z,5308
2018-05-19T12:48:54.056Z,5368
2018-05-19T12:49:53.800Z,5332
2018-05-19T12:50:53.594Z,5488
2018-05-19T12:51:53.914Z,5752
2018-05-19T12:52:53.886Z,5476
2018-05-19T12:53:53.648Z,5432
2018-05-19T12:54:53.654Z,5376
2018-05-19T12:55:53.674Z,5160
2018-05-19T12:56:53.993Z,5288
2018-05-19T12:57:53.758Z,4932
2018-05-19T12:58:53.781Z,4492
2018-05-19T12:59:53.764Z,4072
2018-05-19T13:00:53.530Z,3728
2018-05-19T13:01:54.612Z,3536
2018-05-19T13:02:53.865Z,3404
2018-05-19T13:03:54.187Z,3396
2018-05-19T13:04:54.172Z,3552
2018-05-19T13:05:53.971Z,3816
2018-05-19T13:06:53.694Z,4020
2018-05-19T13:07:53.716Z,4336
2018-05-19T13:08:54.043Z,4700
2018-05-19T13:09:54.042Z,4940
2018-05-19T13:10:54.362Z,5084
2018-05-19T13:11:54.126Z,4860
2018-05-19T13:12:54.382Z,4820
2018-05-19T13:13:54.446Z,4392
2018-05-19T13:14:54.443Z,4384
2018-05-19T13:15:53.922Z,4372
2018-05-19T13:16:54.469Z,4300
2018-05-19T13:17:54.527Z,4448
2018-05-19T13:18:54.265Z,4624
2018-05-19T13:19:54.576Z,4768
2018-05-19T13:20:54.597Z,4908
2018-05-19T13:21:54.743Z,5040
2018-05-19T13:22:54.621Z,5232
2018-05-19T13:23:54.412Z,5448
2018-05-19T13:24:54.701Z,5580
2018-05-19T13:25:54.550Z,5204
2018-05-19T13:26:54.560Z,5516
2018-05-19T13:27:54.776Z,5404
2018-05-19T13:28:54.553Z,4972
2018-05-19T13:29:54.310Z,5548
2018-05-19T13:30:54.562Z,5160
2018-05-19T13:31:54.906Z,5136
2018-05-19T13:32:54.640Z,5524
2018-05-19T13:33:55.189Z,5344
2018-05-19T13:34:54.682Z,4968
2018-05-19T13:35:54.999Z,5212
2018-05-19T13:36:54.744Z,5276
2018-05-19T13:37:55.057Z,5200
2018-05-19T13:38:55.048Z,5072
2018-05-19T13:39:54.817Z,5256
2018-05-19T13:40:55.108Z,5548
2018-05-19T13:41:55.144Z,5836
2018-05-19T13:42:55.198Z,6048
2018-05-19T13:43:55.192Z,6080
2018-05-19T13:44:54.954Z,6156
2018-05-19T13:45:55.003Z,6176
2018-05-19T13:46:55.410Z,5984